Time;durP1;ratioP1;P1;durP2;ratioP2;P2;SDS_P1;SDS_P2;PMS_P1;PMS_P2;Temp;Humidity;BMP_temperature;BMP_pressure;BME280_temperature;BME280_humidity;BME280_pressure;Samples;Min_cycle;Max_cycle;Signal;HPM_P1;HPM_P2
2022/03/16 00:02:30;;;;;;;39.73;26.53;;;;;;;9.10;80.76;101442.72;5129256;27;20211;-63
2022/03/16 00:04:58;;;;;;;41.93;27.93;;;;;;;9.10;80.37;101443.56;5130143;27;20226;-62
2022/03/16 00:07:26;;;;;;;40.33;27.60;;;;;;;9.01;81.10;101446.88;5130710;27;20204;-62
2022/03/16 00:09:55;;;;;;;39.97;27.67;;;;;;;9.12;80.60;101446.94;5131544;27;20288;-63
2022/03/16 00:12:22;;;;;;;41.90;28.07;;;;;;;9.01;81.37;101439.78;5130236;27;20235;-63
2022/03/16 00:14:50;;;;;;;43.53;28.63;;;;;;;9.01;81.23;101434.50;5127873;27;20240;-63
2022/03/16 00:17:18;;;;;;;39.90;27.70;;;;;;;8.97;81.88;101446.25;5129785;27;20208;-63
2022/03/16 00:19:46;;;;;;;41.37;28.87;;;;;;;8.96;81.80;101434.00;5130531;27;20252;-63
2022/03/16 00:22:14;;;;;;;41.20;27.93;;;;;;;8.98;81.39;101429.44;5130553;27;20248;-62
2022/03/16 00:24:42;;;;;;;41.53;28.03;;;;;;;9.10;80.50;101426.84;5130114;27;20201;-66
2022/03/16 00:27:11;;;;;;;38.37;28.20;;;;;;;8.83;81.92;101432.38;5130539;27;20620;-63
2022/03/16 00:29:39;;;;;;;42.00;28.57;;;;;;;8.89;81.83;101434.56;5126566;27;20299;-63
2022/03/16 00:32:12;;;;;;;42.83;29.03;;;;;;;8.56;83.31;101429.97;5128388;27;20609;-63
2022/03/16 00:34:40;;;;;;;48.40;31.63;;;;;;;8.66;83.18;101437.13;5127426;27;20751;-63
2022/03/16 00:37:07;;;;;;;40.03;27.90;;;;;;;8.63;82.61;101432.03;5125119;27;20208;-61
2022/03/16 00:39:35;;;;;;;41.23;28.37;;;;;;;8.78;82.13;101434.53;5125177;27;20292;-63
2022/03/16 00:42:04;;;;;;;44.23;29.87;;;;;;;8.79;81.93;101433.56;5127219;27;20212;-63
2022/03/16 00:44:52;;;;;;;39.83;27.37;;;;;;;8.79;81.21;101436.22;5127339;27;20299;-62
2022/03/16 00:47:20;;;;;;;44.60;29.13;;;;;;;8.64;81.81;101436.38;5125150;27;20215;-64
2022/03/16 00:49:47;;;;;;;46.17;28.27;;;;;;;8.58;82.62;101444.75;5129046;27;20227;-64
2022/03/16 00:52:17;;;;;;;38.40;26.50;;;;;;;8.76;81.55;101447.00;5126786;27;20216;-62
2022/03/16 00:54:45;;;;;;;45.10;29.37;;;;;;;8.78;81.22;101442.47;5124274;27;20308;-63
2022/03/16 00:57:12;;;;;;;39.37;27.50;;;;;;;8.70;81.40;101445.69;5126095;27;20307;-63
2022/03/16 00:59:42;;;;;;;40.47;26.87;;;;;;;8.73;80.98;101447.22;5127412;27;20209;-63
2022/03/16 01:02:10;;;;;;;39.23;26.03;;;;;;;8.73;80.61;101436.66;5124228;27;20219;-63
2022/03/16 01:04:49;;;;;;;37.73;25.50;;;;;;;8.70;80.75;101442.19;5125768;27;20282;-63
2022/03/16 01:07:17;;;;;;;38.83;26.57;;;;;;;8.57;80.19;101445.72;5125573;27;20212;-63
2022/03/16 01:09:45;;;;;;;40.83;26.50;;;;;;;8.34;81.41;101443.06;5125377;27;20367;-63
2022/03/16 01:12:12;;;;;;;37.60;25.10;;;;;;;8.28;82.54;101447.78;5125126;27;20296;-63
2022/03/16 01:14:41;;;;;;;39.33;25.17;;;;;;;8.50;80.67;101447.13;5125725;27;20280;-62
2022/03/16 01:17:09;;;;;;;37.47;24.63;;;;;;;8.68;80.44;101448.44;5126412;27;20215;-63
2022/03/16 01:19:37;;;;;;;41.63;27.83;;;;;;;8.61;80.41;101452.47;5127629;27;20208;-63
2022/03/16 01:22:06;;;;;;;41.73;26.83;;;;;;;8.40;81.59;101448.72;5124693;27;20299;-63
2022/03/16 01:24:34;;;;;;;38.60;25.20;;;;;;;8.52;80.89;101450.50;5126956;27;20218;-62
2022/03/16 01:27:02;;;;;;;42.33;22.70;;;;;;;8.30;81.87;101452.97;5125677;27;20553;-62
2022/03/16 01:29:31;;;;;;;51.20;23.33;;;;;;;8.06;83.04;101455.53;5126729;27;20575;-65
2022/03/16 01:32:00;;;;;;;36.60;22.87;;;;;;;8.15;83.17;101451.41;5126127;27;20226;-62
2022/03/16 01:34:27;;;;;;;37.67;21.67;;;;;;;8.36;81.50;101443.75;5124708;27;20519;-62
2022/03/16 01:36:56;;;;;;;37.90;23.00;;;;;;;8.55;80.07;101447.63;5127139;27;20263;-63
2022/03/16 01:39:25;;;;;;;31.43;20.33;;;;;;;8.37;80.64;101446.31;5125957;27;20493;-63
2022/03/16 01:41:53;;;;;;;34.37;21.47;;;;;;;8.43;81.75;101445.03;5126590;27;20295;-62
2022/03/16 01:44:43;;;;;;;36.90;21.47;;;;;;;8.37;82.10;101435.72;5126242;27;20317;-64
2022/03/16 01:47:14;;;;;;;35.50;22.40;;;;;;;8.20;82.78;101447.47;5126280;27;20654;-63
2022/03/16 01:49:47;;;;;;;28.93;20.33;;;;;;;8.31;82.50;101441.47;5126311;27;20199;-63
2022/03/16 01:52:20;;;;;;;30.03;20.23;;;;;;;8.33;82.35;101442.22;5125042;27;20204;-63
2022/03/16 01:54:55;;;;;;;34.23;22.30;;;;;;;8.48;81.77;101451.66;5124432;27;20223;-64
2022/03/16 01:57:24;;;;;;;35.07;24.13;;;;;;;8.54;81.45;101450.38;5125434;27;20703;-64
2022/03/16 01:59:52;;;;;;;36.77;24.37;;;;;;;8.45;82.30;101457.16;5122852;27;20204;-63
2022/03/16 02:02:21;;;;;;;35.97;22.53;;;;;;;8.58;81.58;101462.44;5125585;27;20208;-63
2022/03/16 02:04:49;;;;;;;36.63;23.90;;;;;;;8.61;81.58;101457.78;5124825;27;20745;-63
2022/03/16 02:07:18;;;;;;;33.60;23.27;;;;;;;8.63;81.29;101455.00;5123358;27;20215;-62
2022/03/16 02:09:50;;;;;;;37.47;24.43;;;;;;;8.73;80.34;101456.00;5127111;27;20218;-63
2022/03/16 02:12:19;;;;;;;34.90;23.73;;;;;;;8.48;82.34;101456.94;5124846;27;20222;-63
2022/03/16 02:14:48;;;;;;;35.73;24.17;;;;;;;8.65;81.33;101453.94;5124570;27;20721;-62
2022/03/16 02:17:16;;;;;;;38.40;24.80;;;;;;;8.62;82.08;101450.66;5125027;27;20213;-64
2022/03/16 02:19:46;;;;;;;39.07;25.27;;;;;;;8.67;81.97;101454.66;5120764;27;20224;-63
2022/03/16 02:22:14;;;;;;;37.97;25.47;;;;;;;8.60;82.23;101456.06;5123920;27;20209;-63
2022/03/16 02:24:43;;;;;;;36.97;25.43;;;;;;;8.63;82.21;101455.00;5125396;27;20219;-63
2022/03/16 02:27:11;;;;;;;36.77;24.93;;;;;;;8.67;81.90;101451.19;5126067;27;20220;-63
2022/03/16 02:29:39;;;;;;;35.50;23.93;;;;;;;8.81;80.81;101455.44;5127026;27;20570;-64
2022/03/16 02:32:07;;;;;;;35.73;22.70;;;;;;;8.81;81.50;101458.09;5126205;27;20799;-63
2022/03/16 02:34:35;;;;;;;33.17;22.60;;;;;;;8.77;82.63;101461.94;5126125;27;20695;-62
2022/03/16 02:37:03;;;;;;;34.60;22.07;;;;;;;8.87;81.81;101465.59;5125659;27;20742;-63
2022/03/16 02:39:31;;;;;;;31.13;20.97;;;;;;;8.94;80.70;101458.88;5125875;27;20218;-63
2022/03/16 02:42:00;;;;;;;29.97;20.97;;;;;;;8.90;81.45;101454.75;5125897;27;20294;-64
2022/03/16 02:44:28;;;;;;;28.17;20.10;;;;;;;8.79;82.31;101455.59;5126519;27;20296;-63
2022/03/16 02:46:56;;;;;;;30.20;20.47;;;;;;;8.85;81.34;101457.75;5126353;27;20723;-63
2022/03/16 02:49:23;;;;;;;30.27;20.87;;;;;;;8.90;81.04;101460.06;5125536;27;20308;-62
2022/03/16 02:51:51;;;;;;;34.40;21.53;;;;;;;8.76;81.11;101452.31;5127086;27;20241;-62
2022/03/16 02:54:19;;;;;;;31.30;21.27;;;;;;;8.75;81.86;101463.84;5124448;27;20291;-62
2022/03/16 02:56:47;;;;;;;28.90;21.00;;;;;;;8.68;82.49;101464.28;5125849;27;20530;-64
2022/03/16 02:59:16;;;;;;;27.87;20.63;;;;;;;8.86;81.20;101466.53;5123934;27;20243;-63
2022/03/16 03:01:44;;;;;;;29.23;21.47;;;;;;;8.90;80.55;101468.00;5123950;27;20210;-63
2022/03/16 03:04:12;;;;;;;29.27;20.40;;;;;;;8.77;81.10;101472.50;5122512;28;20227;-63
2022/03/16 03:06:40;;;;;;;32.77;21.17;;;;;;;8.84;81.41;101463.16;5125032;28;20581;-63
2022/03/16 03:09:08;;;;;;;34.80;21.47;;;;;;;8.46;83.35;101464.16;5124483;28;20223;-62
2022/03/16 03:11:35;;;;;;;31.57;21.10;;;;;;;8.55;82.95;101468.75;5123411;28;20669;-63
2022/03/16 03:14:03;;;;;;;29.00;20.47;;;;;;;8.68;82.45;101469.59;5122719;28;20247;-63
2022/03/16 03:16:32;;;;;;;28.30;19.23;;;;;;;8.75;81.81;101463.84;5123254;28;20230;-63
2022/03/16 03:19:00;;;;;;;28.03;18.90;;;;;;;8.74;81.44;101463.00;5124489;28;20677;-63
2022/03/16 03:21:28;;;;;;;32.07;19.97;;;;;;;8.79;80.69;101460.03;5123404;28;20215;-63
2022/03/16 03:23:56;;;;;;;24.90;18.17;;;;;;;8.83;80.42;101464.13;5127289;27;20216;-62
2022/03/16 03:26:23;;;;;;;26.63;18.07;;;;;;;8.73;80.65;101471.88;5125031;27;20270;-63
2022/03/16 03:28:51;;;;;;;28.10;19.10;;;;;;;8.54;81.51;101467.06;5125970;27;20211;-63
2022/03/16 03:31:19;;;;;;;27.47;18.87;;;;;;;8.50;82.44;101470.91;5127753;27;20222;-62
2022/03/16 03:33:48;;;;;;;26.83;18.87;;;;;;;8.68;80.78;101479.31;5125198;27;20211;-63
2022/03/16 03:36:16;;;;;;;25.27;18.90;;;;;;;8.60;81.30;101471.94;5127469;27;20231;-63
2022/03/16 03:38:43;;;;;;;26.23;19.00;;;;;;;8.61;81.07;101476.28;5127965;27;20215;-63
2022/03/16 03:41:11;;;;;;;24.37;17.43;;;;;;;8.66;80.40;101481.22;5127877;27;20810;-63
2022/03/16 03:43:39;;;;;;;24.50;18.03;;;;;;;8.48;80.38;101477.25;5126397;27;20221;-63
2022/03/16 03:46:10;;;;;;;24.70;18.13;;;;;;;8.58;80.95;101473.00;5128676;27;20215;-62
2022/03/16 03:48:38;;;;;;;26.53;19.43;;;;;;;8.61;80.43;101478.91;5127490;27;20201;-62
2022/03/16 03:51:07;;;;;;;23.77;17.60;;;;;;;8.61;80.61;101478.91;5128388;27;20435;-62
2022/03/16 03:53:35;;;;;;;25.90;18.43;;;;;;;8.51;81.27;101467.31;5127999;27;20270;-61
2022/03/16 03:56:03;;;;;;;26.00;18.63;;;;;;;8.53;81.27;101469.84;5127504;27;20230;-63
2022/03/16 03:58:31;;;;;;;26.00;17.63;;;;;;;8.27;82.90;101476.94;5127982;27;20218;-63
2022/03/16 04:00:58;;;;;;;28.33;19.37;;;;;;;8.39;82.44;101478.75;5130358;27;20214;-62
2022/03/16 04:03:26;;;;;;;30.73;21.10;;;;;;;8.45;81.60;101488.88;5127278;27;20213;-62
2022/03/16 04:05:58;;;;;;;35.13;21.37;;;;;;;8.37;81.75;101485.94;5127277;27;20928;-62
2022/03/16 04:08:35;;;;;;;33.27;22.77;;;;;;;8.33;82.52;101489.78;5126916;27;20235;-62
2022/03/16 04:11:02;;;;;;;34.93;22.33;;;;;;;8.45;81.39;101488.88;5128033;27;20259;-62
2022/03/16 04:13:34;;;;;;;41.03;24.10;;;;;;;8.13;83.47;101492.94;5128110;27;20244;-63
2022/03/16 04:16:01;;;;;;;38.30;24.10;;;;;;;8.40;81.79;101496.31;5127426;27;20798;-63
2022/03/16 04:18:29;;;;;;;37.53;24.10;;;;;;;8.44;81.52;101491.66;5128222;27;20208;-62
2022/03/16 04:20:57;;;;;;;40.90;25.57;;;;;;;8.44;81.07;101496.94;5125708;27;20240;-62
2022/03/16 04:23:25;;;;;;;39.37;24.27;;;;;;;8.34;81.81;101486.19;5125265;27;20689;-62
2022/03/16 04:25:54;;;;;;;35.27;22.83;;;;;;;8.40;81.28;101493.66;5126061;27;20305;-62
2022/03/16 04:28:22;;;;;;;37.90;22.93;;;;;;;8.44;80.83;101491.66;5126674;27;20668;-62
2022/03/16 04:30:50;;;;;;;35.40;22.50;;;;;;;8.26;81.36;101501.72;5126869;27;20719;-62
2022/03/16 04:33:19;;;;;;;32.50;21.43;;;;;;;8.26;81.55;101499.06;5126954;27;20199;-62
2022/03/16 04:35:47;;;;;;;31.67;22.07;;;;;;;8.32;80.93;101501.31;5125960;27;20697;-62
2022/03/16 04:38:19;;;;;;;33.10;21.40;;;;;;;8.16;81.90;101498.03;5126798;27;20208;-62
2022/03/16 04:40:47;;;;;;;30.50;20.90;;;;;;;8.15;82.33;101504.25;5125665;27;20664;-62
2022/03/16 04:43:16;;;;;;;33.93;20.57;;;;;;;8.20;81.59;101505.59;5124567;27;20444;-62
2022/03/16 04:45:45;;;;;;;31.27;21.63;;;;;;;8.17;81.07;101505.00;5125994;27;20228;-62
2022/03/16 04:48:13;;;;;;;41.90;21.07;;;;;;;8.15;80.58;101501.59;5127467;27;20580;-62
2022/03/16 04:50:42;;;;;;;31.60;20.70;;;;;;;8.26;79.95;101493.78;5124446;27;20207;-62
2022/03/16 04:53:09;;;;;;;30.73;21.03;;;;;;;8.00;81.06;101502.69;5125439;27;20230;-62
2022/03/16 04:55:39;;;;;;;34.73;19.63;;;;;;;8.17;79.92;101495.28;5126430;27;20231;-62
2022/03/16 04:58:09;;;;;;;33.30;20.83;;;;;;;8.15;80.25;101493.69;5124490;27;20319;-62
2022/03/16 05:00:48;;;;;;;36.93;20.57;;;;;;;8.12;80.14;101501.81;5126312;27;20265;-62
2022/03/16 05:03:21;;;;;;;32.27;20.23;;;;;;;7.70;82.48;101506.47;5125901;27;20250;-62
2022/03/16 05:05:48;;;;;;;28.17;20.20;;;;;;;7.94;80.91;101502.16;5127565;27;20208;-62
2022/03/16 05:08:16;;;;;;;30.40;20.87;;;;;;;7.94;80.57;101498.66;5127385;27;20200;-62
2022/03/16 05:10:49;;;;;;;44.40;19.70;;;;;;;7.82;81.08;101505.66;5125556;27;20220;-62
2022/03/16 05:13:17;;;;;;;25.13;17.83;;;;;;;8.00;80.05;101500.03;5125201;27;20327;-62
2022/03/16 05:15:47;;;;;;;38.53;19.60;;;;;;;7.75;81.54;101508.78;5124688;27;20322;-62
2022/03/16 05:18:15;;;;;;;29.07;18.67;;;;;;;7.59;81.80;101509.00;5126311;27;20269;-62
2022/03/16 05:20:43;;;;;;;29.10;19.17;;;;;;;7.64;82.13;101517.47;5124812;27;21593;-63
2022/03/16 05:23:19;;;;;;;31.30;20.03;;;;;;;7.82;81.08;101516.22;5125966;27;20232;-63
2022/03/16 05:26:02;;;;;;;28.20;18.83;;;;;;;7.63;81.81;101514.91;5124536;27;20211;-63
2022/03/16 05:28:30;;;;;;;26.17;18.07;;;;;;;7.85;80.09;101518.63;5123356;27;20228;-63
2022/03/16 05:30:59;;;;;;;27.13;19.40;;;;;;;7.79;80.48;101516.41;5125401;27;20297;-63
2022/03/16 05:33:27;;;;;;;34.87;19.93;;;;;;;7.78;81.08;101509.44;5124777;27;20214;-63
2022/03/16 05:35:54;;;;;;;29.90;18.53;;;;;;;7.90;80.07;101518.31;5123068;27;20337;-62
2022/03/16 05:38:22;;;;;;;28.23;18.60;;;;;;;7.75;80.65;101507.00;5123371;27;20243;-61
2022/03/16 05:40:50;;;;;;;27.73;18.40;;;;;;;7.83;80.00;101512.59;5125702;27;20228;-62
2022/03/16 05:43:17;;;;;;;27.43;18.67;;;;;;;7.90;79.96;101516.53;5126026;27;20203;-63
2022/03/16 05:45:45;;;;;;;29.13;19.53;;;;;;;7.84;79.89;101509.00;5127141;27;20556;-63
2022/03/16 05:48:14;;;;;;;33.60;20.17;;;;;;;7.89;79.81;101511.34;5125713;27;20235;-63
2022/03/16 05:50:45;;;;;;;33.10;20.03;;;;;;;7.74;80.49;101515.03;5125098;27;20212;-63
2022/03/16 05:53:14;;;;;;;30.13;18.70;;;;;;;7.78;80.04;101519.16;5125682;27;20594;-63
2022/03/16 05:55:43;;;;;;;33.20;18.90;;;;;;;7.60;80.57;101518.59;5124481;27;20667;-63
2022/03/16 05:58:13;;;;;;;25.23;18.27;;;;;;;7.81;79.98;101516.31;5124639;27;20546;-63
2022/03/16 06:00:42;;;;;;;27.97;19.03;;;;;;;7.77;79.87;101515.66;5124726;27;20735;-62
2022/03/16 06:03:11;;;;;;;27.70;18.23;;;;;;;7.80;79.97;101518.09;5125718;27;20731;-63
2022/03/16 06:05:40;;;;;;;29.57;19.27;;;;;;;7.71;80.58;101518.72;5126355;27;20228;-63
2022/03/16 06:08:08;;;;;;;28.00;18.97;;;;;;;7.85;79.58;101515.97;5125422;27;20210;-62
2022/03/16 06:10:36;;;;;;;29.77;18.80;;;;;;;7.75;79.83;101528.13;5125860;27;20858;-63
2022/03/16 06:13:06;;;;;;;27.47;18.40;;;;;;;7.87;79.27;101519.38;5124580;27;20238;-62
2022/03/16 06:15:39;;;;;;;27.90;19.07;;;;;;;7.77;79.83;101528.03;5124853;27;20200;-63
2022/03/16 06:18:07;;;;;;;29.37;19.20;;;;;;;7.73;80.03;101526.56;5123621;27;20193;-63
2022/03/16 06:20:36;;;;;;;29.83;20.07;;;;;;;7.76;79.92;101535.09;5123793;27;20277;-63
2022/03/16 06:23:06;;;;;;;28.50;18.53;;;;;;;7.64;80.97;101532.44;5123816;27;20203;-63
2022/03/16 06:25:39;;;;;;;28.63;19.60;;;;;;;7.81;79.80;101540.94;5124979;27;20716;-62
2022/03/16 06:28:07;;;;;;;25.67;17.97;;;;;;;7.73;80.03;101535.31;5123966;27;20315;-63
2022/03/16 06:30:35;;;;;;;36.23;18.17;;;;;;;7.66;79.61;101536.66;5126712;27;20665;-62
2022/03/16 06:33:02;;;;;;;27.60;18.37;;;;;;;7.51;81.25;101542.97;5120852;27;20258;-63
2022/03/16 06:35:32;;;;;;;25.50;18.87;;;;;;;7.62;80.68;101537.84;5124948;27;20308;-62
2022/03/16 06:38:00;;;;;;;24.43;18.30;;;;;;;7.26;82.17;101543.75;5122719;27;20235;-63
2022/03/16 06:40:29;;;;;;;31.70;20.37;;;;;;;7.37;81.02;101540.44;5124915;27;20302;-62
2022/03/16 06:42:59;;;;;;;32.83;20.00;;;;;;;7.54;80.31;101537.50;5126493;27;20751;-63
2022/03/16 06:45:30;;;;;;;31.57;20.90;;;;;;;7.75;79.95;101546.59;5127443;27;20217;-62
2022/03/16 06:47:59;;;;;;;31.83;20.43;;;;;;;7.69;80.57;101549.66;5126737;27;20222;-63
2022/03/16 06:50:28;;;;;;;34.70;22.50;;;;;;;7.62;80.40;101542.25;5124133;27;20475;-62
2022/03/16 06:52:57;;;;;;;41.87;20.60;;;;;;;7.75;80.22;101543.97;5124205;27;20219;-63
2022/03/16 06:55:26;;;;;;;32.30;21.43;;;;;;;7.96;79.56;101552.22;5122720;27;20241;-63
2022/03/16 06:57:55;;;;;;;32.37;21.20;;;;;;;8.00;79.67;101551.09;5125571;27;20326;-63
2022/03/16 07:00:23;;;;;;;35.83;22.77;;;;;;;7.92;80.47;101548.94;5124203;27;20211;-62
2022/03/16 07:02:53;;;;;;;32.13;21.23;;;;;;;7.76;81.49;101552.72;5123568;27;20210;-63
2022/03/16 07:05:25;;;;;;;35.17;22.83;;;;;;;8.00;80.82;101548.44;5126725;27;20214;-62
2022/03/16 07:07:52;;;;;;;33.93;23.17;;;;;;;7.75;82.75;101551.03;5122148;28;20283;-62
2022/03/16 07:10:21;;;;;;;33.77;22.40;;;;;;;7.92;81.85;101553.38;5122935;28;20221;-62
2022/03/16 07:12:48;;;;;;;34.20;22.73;;;;;;;8.03;81.58;101550.00;5121212;28;20208;-67
2022/03/16 07:15:18;;;;;;;42.57;24.27;;;;;;;8.01;81.19;101542.19;5123422;28;21039;-66
2022/03/16 07:17:45;;;;;;;38.53;23.47;;;;;;;8.21;80.96;101543.44;5123468;28;20296;-64
2022/03/16 07:20:15;;;;;;;35.93;23.40;;;;;;;8.27;80.84;101558.88;5124164;28;20492;-64
2022/03/16 07:22:43;;;;;;;41.17;26.27;;;;;;;7.97;83.09;101553.06;5124608;28;20216;-64
2022/03/16 07:25:26;;;;;;;42.27;24.37;;;;;;;8.23;82.07;101554.75;5124145;28;20229;-62
2022/03/16 07:27:53;;;;;;;43.73;26.23;;;;;;;8.30;81.46;101553.38;5123287;28;20311;-65
2022/03/16 07:30:23;;;;;;;44.97;26.87;;;;;;;8.15;82.49;101554.44;5125239;28;20720;-61
2022/03/16 07:32:53;;;;;;;38.13;25.17;;;;;;;8.30;82.16;101569.22;5123677;28;20248;-63
2022/03/16 07:35:26;;;;;;;45.43;27.83;;;;;;;8.40;81.25;101575.59;5126880;28;20216;-63
2022/03/16 07:37:57;;;;;;;44.63;26.37;;;;;;;8.40;81.08;101575.59;5127400;28;20612;-64
2022/03/16 07:40:29;;;;;;;42.67;25.97;;;;;;;8.26;82.04;101587.13;5125202;28;20606;-65
2022/03/16 07:42:57;;;;;;;47.03;28.63;;;;;;;8.35;81.44;101582.19;5123590;28;20259;-65
2022/03/16 07:45:26;;;;;;;41.47;25.80;;;;;;;8.41;81.59;101585.22;5125089;28;20772;-64
2022/03/16 07:47:56;;;;;;;41.67;25.67;;;;;;;8.45;81.19;101591.13;5122277;27;20380;-64
2022/03/16 07:50:24;;;;;;;39.30;26.00;;;;;;;8.49;81.18;101593.47;5124983;28;20213;-65
2022/03/16 07:52:52;;;;;;;53.50;30.47;;;;;;;8.30;82.38;101590.38;5123296;28;20207;-65
2022/03/16 07:55:20;;;;;;;57.30;29.30;;;;;;;8.54;81.63;101593.97;5121511;28;20205;-64
2022/03/16 07:57:48;;;;;;;42.83;26.83;;;;;;;8.38;82.46;101592.50;5124788;28;20343;-65
2022/03/16 08:00:17;;;;;;;38.17;24.50;;;;;;;8.59;81.46;101580.44;5125061;28;20293;-65
2022/03/16 08:02:46;;;;;;;40.40;26.37;;;;;;;8.80;80.43;101591.28;5128356;27;20201;-63
2022/03/16 08:05:17;;;;;;;48.17;27.37;;;;;;;8.99;80.24;101583.72;5128305;28;20260;-63
2022/03/16 08:07:45;;;;;;;44.50;27.77;;;;;;;9.12;79.55;101583.69;5126551;28;20197;-63
2022/03/16 08:10:12;;;;;;;43.77;28.23;;;;;;;9.18;79.50;101593.81;5124416;27;20252;-63
2022/03/16 08:12:40;;;;;;;47.83;28.53;;;;;;;8.95;81.13;101592.84;5128779;27;20634;-63
2022/03/16 08:15:09;;;;;;;46.83;29.10;;;;;;;9.17;79.56;101590.31;5110715;28;20285;-64
2022/03/16 08:17:38;;;;;;;43.00;26.70;;;;;;;9.29;79.09;101591.25;5124229;27;20243;-65
2022/03/16 08:20:09;;;;;;;42.93;26.27;;;;;;;9.09;79.96;101592.69;5131014;27;20224;-65
2022/03/16 08:22:38;;;;;;;44.87;27.70;;;;;;;9.13;80.79;101588.88;5130613;27;20263;-64
2022/03/16 08:25:08;;;;;;;53.00;31.40;;;;;;;9.21;80.39;101583.88;5125085;27;20217;-64
2022/03/16 08:27:40;;;;;;;50.03;31.53;;;;;;;9.25;79.63;101590.59;5128190;27;20600;-64
2022/03/16 08:30:11;;;;;;;45.93;29.37;;;;;;;9.21;80.45;101583.88;5111025;27;20277;-64
2022/03/16 08:32:39;;;;;;;45.60;28.87;;;;;;;9.36;79.79;101582.72;5130870;27;20294;-63
2022/03/16 08:35:09;;;;;;;49.83;32.33;;;;;;;9.43;79.44;101583.13;5131222;27;20207;-63
2022/03/16 08:37:37;;;;;;;47.00;30.23;;;;;;;9.64;78.97;101580.69;5129783;27;20551;-63
2022/03/16 08:40:07;;;;;;;43.10;28.07;;;;;;;9.75;78.37;101588.66;5130600;27;20714;-63
2022/03/16 08:42:35;;;;;;;44.17;28.00;;;;;;;9.84;77.93;101580.03;5123752;27;20301;-65
2022/03/16 08:45:03;;;;;;;39.53;27.33;;;;;;;9.99;77.57;101584.16;5126856;27;20217;-65
2022/03/16 08:47:31;;;;;;;44.43;27.07;;;;;;;9.96;78.75;101583.53;5125908;27;20209;-63
2022/03/16 08:49:59;;;;;;;38.80;25.00;;;;;;;10.15;77.20;101587.31;5125818;27;20247;-64
2022/03/16 08:52:28;;;;;;;37.50;24.73;;;;;;;10.25;77.01;101582.19;5128132;27;20206;-64
2022/03/16 08:54:55;;;;;;;38.63;25.63;;;;;;;11.00;74.45;101579.72;5126191;27;20207;-64
2022/03/16 08:57:23;;;;;;;44.53;25.77;;;;;;;11.25;73.02;101568.81;5126149;27;20236;-63
2022/03/16 08:59:51;;;;;;;40.30;25.50;;;;;;;12.61;68.22;101560.72;5124771;27;20315;-64
2022/03/16 09:02:19;;;;;;;34.33;23.90;;;;;;;12.39;68.18;101563.59;5126610;27;20286;-63
2022/03/16 09:04:47;;;;;;;34.40;23.37;;;;;;;12.35;68.85;101578.13;5125808;27;20750;-64
2022/03/16 09:07:14;;;;;;;32.70;21.80;;;;;;;11.20;72.32;101568.31;5127924;27;20232;-64
2022/03/16 09:09:44;;;;;;;35.03;22.00;;;;;;;11.07;73.09;101569.47;5125492;27;20285;-64
2022/03/16 09:12:12;;;;;;;31.90;21.87;;;;;;;10.96;73.50;101572.13;5122337;27;20655;-63
2022/03/16 09:14:40;;;;;;;28.20;20.63;;;;;;;10.92;73.07;101577.69;5126451;27;20241;-64
2022/03/16 09:17:10;;;;;;;33.20;22.13;;;;;;;11.22;72.41;101566.38;5124166;27;20209;-62
2022/03/16 09:19:39;;;;;;;33.93;22.70;;;;;;;11.72;71.17;101558.69;5125787;27;20672;-64
2022/03/16 09:22:07;;;;;;;31.27;21.50;;;;;;;12.43;68.55;101552.53;5124001;27;20292;-63
2022/03/16 09:24:35;;;;;;;28.40;20.17;;;;;;;12.76;67.43;101555.84;5124497;27;20316;-64
2022/03/16 09:27:06;;;;;;;30.10;21.50;;;;;;;12.62;66.90;101548.25;5127519;27;20288;-63
2022/03/16 09:29:33;;;;;;;33.27;20.40;;;;;;;12.58;67.39;101538.84;5129480;27;20204;-64
2022/03/16 09:32:07;;;;;;;34.30;22.20;;;;;;;12.49;68.53;101539.69;5127503;27;20244;-64
2022/03/16 09:34:36;;;;;;;28.17;20.27;;;;;;;12.41;68.54;101533.19;5126561;27;20212;-63
2022/03/16 09:37:04;;;;;;;34.27;21.30;;;;;;;12.29;68.46;101528.97;5126659;27;20807;-64
2022/03/16 09:39:31;;;;;;;28.70;20.87;;;;;;;12.56;67.75;101530.19;5129380;27;20357;-63
2022/03/16 09:41:59;;;;;;;28.13;19.63;;;;;;;12.67;65.87;101530.91;5127036;27;20215;-63
2022/03/16 09:44:30;;;;;;;28.90;19.53;;;;;;;12.86;66.56;101526.59;5125008;27;20655;-64
2022/03/16 09:46:59;;;;;;;26.93;20.13;;;;;;;12.98;65.58;101521.03;5127104;27;20266;-63
2022/03/16 09:49:28;;;;;;;29.23;19.93;;;;;;;13.04;66.21;101517.81;5123746;27;20232;-63
2022/03/16 09:51:57;;;;;;;27.77;20.10;;;;;;;14.06;62.46;101524.34;5123301;27;20216;-64
2022/03/16 09:54:25;;;;;;;27.30;19.43;;;;;;;14.62;60.75;101524.25;5121913;27;20513;-64
2022/03/16 09:56:54;;;;;;;31.47;19.30;;;;;;;14.72;60.38;101520.69;5124407;27;20209;-63
2022/03/16 09:59:22;;;;;;;30.17;18.50;;;;;;;14.38;61.07;101534.59;5123498;27;20225;-63
2022/03/16 10:02:09;;;;;;;27.00;17.87;;;;;;;13.96;62.30;101534.19;5124486;27;20197;-63
2022/03/16 10:04:39;;;;;;;25.50;18.00;;;;;;;14.12;61.59;101528.25;5122895;27;20206;-64
2022/03/16 10:07:07;;;;;;;23.50;18.03;;;;;;;15.05;59.01;101517.38;5122859;27;20198;-63
2022/03/16 10:15:10;;;;;;;37.73;17.90;;;;;;;17.95;49.71;101494.66;5122215;27;20235;-63
2022/03/16 10:17:46;;;;;;;19.80;16.23;;;;;;;17.86;48.98;101492.16;5125473;27;20574;-65
2022/03/16 10:20:23;;;;;;;24.63;17.37;;;;;;;18.21;48.65;101489.06;5125606;27;20189;-63
2022/03/16 10:22:57;;;;;;;17.90;15.73;;;;;;;18.09;48.48;101485.09;5126322;27;20636;-64
2022/03/16 10:25:25;;;;;;;21.73;16.13;;;;;;;17.93;49.37;101485.13;5127505;27;20194;-65
2022/03/16 10:27:53;;;;;;;23.83;16.10;;;;;;;18.30;47.65;101484.50;5121883;27;20483;-64
2022/03/16 10:30:21;;;;;;;24.33;15.83;;;;;;;17.53;50.40;101478.78;5124915;27;20402;-64
2022/03/16 10:32:54;;;;;;;25.83;15.87;;;;;;;18.46;47.53;101480.91;5121995;27;21307;-63
2022/03/16 10:35:23;;;;;;;19.02;15.00;;;;;;;18.75;46.25;101487.31;5123668;27;20671;-64
2022/03/16 10:37:51;;;;;;;19.13;13.98;;;;;;;18.23;47.35;101486.19;5123429;27;20510;-64
2022/03/16 10:40:26;;;;;;;15.45;13.85;;;;;;;17.81;47.76;101486.50;5124782;27;20567;-63
2022/03/16 10:48:26;;;;;;;21.52;14.90;;;;;;;17.23;50.22;101483.00;5127881;27;20671;-64
2022/03/16 10:50:58;;;;;;;16.90;14.10;;;;;;;17.92;47.59;101472.72;5125253;27;20586;-65
2022/03/16 10:53:29;;;;;;;15.60;14.00;;;;;;;17.44;49.31;101476.28;5124426;27;20597;-63
2022/03/16 10:55:59;;;;;;;17.98;14.15;;;;;;;17.02;50.45;101476.44;5124901;27;20235;-63
2022/03/16 10:58:28;;;;;;;16.48;14.57;;;;;;;18.13;47.25;101475.66;5125002;27;20245;-63
2022/03/16 11:00:57;;;;;;;19.20;14.75;;;;;;;17.87;49.13;101467.84;5123929;27;20415;-63
2022/03/16 11:03:29;;;;;;;17.13;14.02;;;;;;;18.01;48.69;101471.69;5124250;27;20667;-64
2022/03/16 11:05:57;;;;;;;18.33;14.75;;;;;;;18.33;47.69;101471.56;5126274;28;20267;-65
2022/03/16 11:08:26;;;;;;;16.17;13.48;;;;;;;17.49;50.33;101473.94;5125749;28;20209;-64
2022/03/16 11:10:54;;;;;;;16.13;14.43;;;;;;;16.69;51.48;101462.97;5124729;28;20263;-65
2022/03/16 11:13:32;;;;;;;17.27;13.48;;;;;;;16.53;52.77;101455.69;5123961;28;20577;-65
2022/03/16 11:16:01;;;;;;;16.05;13.80;;;;;;;16.50;52.16;101456.03;5125426;28;20212;-64
2022/03/16 11:18:30;;;;;;;18.23;14.65;;;;;;;16.50;53.05;101455.19;5125879;28;20298;-65
2022/03/16 11:21:06;;;;;;;17.25;13.77;;;;;;;16.69;51.92;101451.44;5127300;28;20209;-65
2022/03/16 11:26:42;;;;;;;17.98;14.88;;;;;;;17.19;50.13;101444.13;5123884;28;20205;-65
2022/03/16 11:29:22;;;;;;;14.50;13.00;;;;;;;17.19;50.48;101443.28;5124716;28;20220;-64
2022/03/16 11:31:50;;;;;;;17.67;13.80;;;;;;;17.55;49.68;101446.44;5122002;28;20575;-65
2022/03/16 11:34:23;;;;;;;15.65;14.02;;;;;;;17.57;49.96;101439.06;5122156;28;20655;-64
2022/03/16 11:37:01;;;;;;;16.17;14.27;;;;;;;17.80;49.01;101442.72;5124651;28;20194;-65
2022/03/16 11:39:40;;;;;;;19.08;14.80;;;;;;;18.05;48.97;101435.44;5125404;28;20224;-65